WBSB/BWN METAR and TAF weather

Enter ICAO airport designator
Station Type Date Time Source
WBSB METAR 2019/08/19 12:00 UTC NOAA

WBSB 191200Z 25002KT 9999 FEW015 FEW016CB BKN300 29/24 Q1009 NOSIG


Station Type Date Time Source
WBSB Decoded METAR 2019/08/19 12:00 UTC NOAA

Station name not available
Aug 19, 2019 - 08:00 AM EDT / 2019.08.19 1200 UTC
Wind: from the WSW (250 degrees) at 2 MPH (2 KT):0
Visibility: greater than 7 mile(s):0
Sky conditions: mostly cloudy
Weather: Cumulonimbus clouds observed
Temperature: 84 F (29 C)
Dew Point: 75 F (24 C)
Relative Humidity: 74%
Pressure (altimeter): 29.80 in. Hg (1009 hPa)
ob: WBSB 191200Z 25002KT 9999 FEW015 FEW016CB BKN300 29/24 Q1009 NOSIG
cycle: 12

Station Type Date Time Source
WBSB TAF 2019/08/19 12:12 UTC NOAA

TAF WBSB 191050Z 1912/2018 22003KT 9999 FEW015 FEW016CB PROB40
TEMPO 1916/1920 5000 TSRA SCT014 FEW015CB

Example: see airport list